Etusivu
METAR-TAF:

METAR-TAF

Lentoasemat :

Kangiqsualujjuaq, Quebec, Kanada

Leveyspiiri: 58-43N, Pituuspiiri: 065-59W, korkeus merenpinnasta: 60 m

Tämänhetkinen sää

Tämä raportti tehtiin 12 tuntia ja 21 minuuttia sitten, kello 22.00 UTC
Tuuli 5 kn etelästä/lounaasta
Lämpötila -24°C
Kosteus 69%
Ilmanpaine 1022 hPa
Näkyvyys: 16.1 km
Hajanaisia pilviä 2600 ft:n korkeudessa
Hajonneita pilviä 4700 ft:n korkeudessa
Hajonneita pilviä 8900 ft:n korkeudessa
heikkoa lumisadetta

METAR: CYLU 252200Z 20005KT 10SM -SN SCT026 BKN047 BKN089 M24/M28 A3019 RMK SC3SC2AC2 LAST STFD OBS/NEXT 261300 UTC SLP234

Aika: 05:21 (10:21 UTC)


TAF: puuttuu

Säähavainnot ja -ennusteet yli 4000 lentoasemalta (METAR- ja TAF-raportit).

Käytössä olevat sääasemat on merkitty karttaan keltaisilla ja punaisilla pisteillä.

Aseta hiiri pisteen päälle nähdäksesi sääaseman nimen.

Klikkaa sitten nähdäksesi säähavainnot ja -ennusteet.

Kartan vaihtaminen: klikkaa mustalla rastilla varustettuja vihreitä pisteitä, niin voit zoomata sisään; viivalla varustettua vihreää pistettä, niin voit zoomata ulos tai vihreitä nuolia, niin pääset viereisille kartoille.


METAR-TAF: